Time;durP1;ratioP1;P1;durP2;ratioP2;P2;SDS_P1;SDS_P2;PMS_P1;PMS_P2;Temp;Humidity;BMP_temperature;BMP_pressure;BME280_temperature;BME280_humidity;BME280_pressure;Samples;Min_cycle;Max_cycle;Signal;HPM_P1;HPM_P2
2022/01/22 00:00:20;;;;;;;7.63;4.45;;;;;;;-0.05;96.78;97966.44;2073728;28;20197;-58
2022/01/22 00:01:22;;;;;;;7.53;4.00;;;;;;;-0.05;96.81;97966.44;2073521;28;20709;-58
2022/01/22 00:02:24;;;;;;;7.22;5.07;;;;;;;-0.08;96.63;97963.88;2073502;28;20205;-58
2022/01/22 00:03:25;;;;;;;6.90;4.75;;;;;;;-0.02;96.66;97971.56;2073389;28;20232;-58
2022/01/22 00:04:27;;;;;;;5.82;4.35;;;;;;;-0.02;96.72;97968.97;2073047;28;20204;-58
2022/01/22 00:05:29;;;;;;;9.38;5.55;;;;;;;0.02;97.10;97968.13;2073534;28;20584;-58
2022/01/22 00:06:30;;;;;;;10.90;5.45;;;;;;;0.03;97.08;97963.81;2073260;28;20198;-58
2022/01/22 00:07:37;;;;;;;10.98;5.00;;;;;;;0.02;97.13;97962.09;2073546;28;20202;-58
2022/01/22 00:08:38;;;;;;;11.35;5.38;;;;;;;-0.01;97.00;97950.94;2073804;28;20201;-58
2022/01/22 00:09:47;;;;;;;11.23;5.30;;;;;;;0.03;97.14;97958.69;2073397;28;20230;-58
2022/01/22 00:10:50;;;;;;;8.75;5.60;;;;;;;0.08;96.88;97955.22;2073060;28;20193;-58
2022/01/22 00:11:53;;;;;;;10.55;5.60;;;;;;;-0.13;96.50;97925.25;2073685;28;20198;-58
2022/01/22 00:15:25;;;;;;;10.82;5.55;;;;;;;0.07;96.68;97956.06;2071860;28;20671;-58
2022/01/22 00:16:26;;;;;;;12.07;5.32;;;;;;;0.05;96.55;97939.75;2073790;28;20198;-58
2022/01/22 00:17:28;;;;;;;12.95;5.25;;;;;;;0.06;96.30;97944.06;2073819;28;20205;-58
2022/01/22 00:18:29;;;;;;;10.13;5.63;;;;;;;0.16;96.26;97953.44;2073484;28;20194;-58
2022/01/22 00:19:31;;;;;;;7.45;5.05;;;;;;;0.17;96.08;97957.72;2073273;28;20248;-58
2022/01/22 00:20:32;;;;;;;9.30;4.97;;;;;;;0.18;95.56;97956.88;2073737;28;20761;-58
2022/01/22 00:21:34;;;;;;;10.30;5.47;;;;;;;0.10;95.92;97942.28;2073652;28;20202;-58
2022/01/22 00:22:37;;;;;;;12.93;5.07;;;;;;;0.19;95.68;97952.56;2073731;28;20240;-58
2022/01/22 00:23:39;;;;;;;14.90;5.45;;;;;;;0.19;95.70;97950.84;2077369;28;20200;-58
2022/01/22 00:24:41;;;;;;;13.73;5.40;;;;;;;0.28;95.45;97954.25;2076859;28;20229;-58
2022/01/22 00:25:42;;;;;;;8.27;5.55;;;;;;;0.23;95.20;97950.81;2073838;28;20198;-58
2022/01/22 00:26:45;;;;;;;9.50;5.60;;;;;;;0.26;95.06;97961.13;2073735;28;20205;-58
2022/01/22 00:27:48;;;;;;;8.65;5.20;;;;;;;0.24;95.57;97961.13;2073486;28;20206;-58
2022/01/22 00:28:50;;;;;;;13.00;5.00;;;;;;;0.25;95.03;97962.81;2073546;28;20202;-58
2022/01/22 00:29:51;;;;;;;11.55;6.00;;;;;;;0.26;95.17;97961.13;2073151;28;20225;-58
2022/01/22 00:30:53;;;;;;;13.70;5.10;;;;;;;0.07;95.38;97930.31;2073428;28;20201;-58
2022/01/22 00:31:54;;;;;;;12.50;5.43;;;;;;;0.28;95.27;97967.13;2073496;28;20201;-58
2022/01/22 00:32:56;;;;;;;12.02;5.68;;;;;;;0.28;95.17;97956.81;2073599;28;20211;-58
2022/01/22 00:33:57;;;;;;;9.45;5.10;;;;;;;0.29;94.93;97964.50;2073448;28;20205;-58
2022/01/22 00:34:59;;;;;;;9.93;5.95;;;;;;;0.26;95.06;97961.97;2073113;28;20233;-58
2022/01/22 00:36:00;;;;;;;11.35;5.63;;;;;;;0.21;95.40;97955.97;2073185;28;20209;-58
2022/01/22 00:37:02;;;;;;;11.07;5.85;;;;;;;0.21;95.42;97945.69;2073338;28;20193;-58
2022/01/22 00:38:04;;;;;;;26.63;15.18;;;;;;;0.28;95.44;97960.25;2073633;28;20534;-58
2022/01/22 00:39:07;;;;;;;9.00;6.00;;;;;;;0.28;95.35;97961.97;2072774;28;20214;-58
2022/01/22 00:40:10;;;;;;;31.25;16.52;;;;;;;0.29;95.40;97966.25;2073049;28;20236;-58
2022/01/22 00:41:12;;;;;;;18.08;9.48;;;;;;;0.30;95.42;97960.25;2072820;28;20226;-58
2022/01/22 00:42:15;;;;;;;9.50;6.28;;;;;;;0.29;95.61;97963.66;2073482;28;20550;-58
2022/01/22 00:43:18;;;;;;;10.20;7.47;;;;;;;0.34;95.63;97961.94;2072243;28;20206;-58
2022/01/22 00:44:19;;;;;;;10.30;6.07;;;;;;;0.34;94.75;97955.03;2073171;28;20637;-58
2022/01/22 00:45:21;;;;;;;17.38;7.30;;;;;;;0.37;94.64;97951.59;2073451;28;20201;-58
2022/01/22 00:46:23;;;;;;;16.30;6.22;;;;;;;0.38;94.57;97950.72;2073446;28;20560;-58
2022/01/22 00:47:25;;;;;;;16.02;7.00;;;;;;;0.34;94.64;97951.63;2073457;28;20281;-58
2022/01/22 00:48:26;;;;;;;13.27;7.00;;;;;;;0.28;94.59;97947.34;2073492;28;20202;-58
2022/01/22 00:49:29;;;;;;;18.50;6.30;;;;;;;0.29;94.58;97936.16;2071495;28;20185;-58
2022/01/22 00:50:31;;;;;;;8.48;4.95;;;;;;;0.33;94.48;97953.34;2073554;28;20548;-57
2022/01/22 00:51:32;;;;;;;12.85;7.88;;;;;;;0.34;94.94;97954.19;2073156;28;20256;-57
2022/01/22 00:52:33;;;;;;;13.25;6.72;;;;;;;0.21;94.75;97924.22;2073213;28;20214;-58
2022/01/22 00:53:35;;;;;;;13.10;6.65;;;;;;;-0.15;94.54;97865.19;2071112;28;20202;-57
2022/01/22 00:54:37;;;;;;;12.02;6.93;;;;;;;0.33;94.61;97950.78;2073059;28;20237;-58
2022/01/22 00:55:39;;;;;;;17.00;8.20;;;;;;;0.30;94.84;97937.91;2073257;28;20198;-58
2022/01/22 00:56:40;;;;;;;26.65;17.38;;;;;;;0.42;94.61;97944.69;2073610;28;20201;-57
2022/01/22 00:57:42;;;;;;;17.02;8.88;;;;;;;0.38;94.52;97943.00;2073463;28;20201;-57
2022/01/22 00:58:44;;;;;;;11.23;7.60;;;;;;;0.28;94.30;97942.22;2073377;28;20201;-57
2022/01/22 00:59:45;;;;;;;16.13;5.95;;;;;;;0.33;94.64;97952.47;2072846;28;20233;-58
2022/01/22 01:00:47;;;;;;;16.77;8.02;;;;;;;0.36;94.66;97955.03;2070048;28;20197;-57
2022/01/22 01:01:49;;;;;;;19.38;7.20;;;;;;;0.34;94.72;97949.03;2073450;28;20281;-58
2022/01/22 01:02:51;;;;;;;20.75;8.45;;;;;;;0.34;94.31;97947.31;2073115;28;20240;-58
2022/01/22 01:03:53;;;;;;;11.60;6.80;;;;;;;0.28;94.73;97942.22;2072431;28;20197;-57
2022/01/22 01:04:54;;;;;;;21.08;12.05;;;;;;;0.41;94.47;97955.84;2071874;28;20275;-57
2022/01/22 01:05:56;;;;;;;10.23;6.93;;;;;;;0.41;94.48;97953.28;2072968;28;20202;-58
2022/01/22 01:06:57;;;;;;;18.02;11.73;;;;;;;0.38;94.77;97951.56;2072424;28;20206;-57
2022/01/22 01:07:59;;;;;;;16.95;10.20;;;;;;;0.36;94.33;97944.72;2071948;28;20198;-58
2022/01/22 01:09:02;;;;;;;15.35;6.78;;;;;;;0.31;94.25;97946.47;2071499;28;20645;-58
2022/01/22 01:10:06;;;;;;;11.07;6.72;;;;;;;0.34;94.44;97954.19;2072618;28;20728;-58
2022/01/22 01:11:09;;;;;;;11.75;6.30;;;;;;;0.45;94.27;97955.00;2072848;28;20213;-58
2022/01/22 01:12:12;;;;;;;11.25;5.20;;;;;;;0.42;94.19;97957.56;2072770;28;20201;-58
2022/01/22 01:13:15;;;;;;;11.18;6.30;;;;;;;0.40;94.46;97961.88;2071696;28;20197;-58
2022/01/22 01:14:44;;;;;;;12.40;6.70;;;;;;;0.34;94.39;97961.94;2072617;28;20224;-58
2022/01/22 01:16:42;;;;;;;7.60;5.65;;;;;;;0.29;94.70;97958.50;2072954;28;20560;-57
2022/01/22 01:32:52;;;;;;;16.02;6.70;;;;;;;0.44;94.08;97960.16;2071863;28;20194;-58
2022/01/22 01:33:59;;;;;;;10.82;5.15;;;;;;;0.36;94.01;97962.78;2071741;28;20891;-58
2022/01/22 01:35:05;;;;;;;10.70;5.63;;;;;;;0.38;93.62;97950.72;2072325;28;20237;-58
2022/01/22 01:36:07;;;;;;;16.58;5.32;;;;;;;0.41;93.60;97955.00;2072026;28;20537;-58
2022/01/22 01:37:12;;;;;;;10.90;5.35;;;;;;;0.38;93.54;97958.47;2073169;28;20550;-58
2022/01/22 01:38:14;;;;;;;7.22;4.72;;;;;;;0.40;94.03;97961.88;2072207;28;20198;-58
2022/01/22 01:39:22;;;;;;;9.10;5.00;;;;;;;0.41;93.70;97957.56;2072622;28;20645;-58
2022/01/22 01:40:26;;;;;;;15.38;6.22;;;;;;;0.24;93.53;97929.34;2072958;28;20205;-58
2022/01/22 01:42:50;;;;;;;12.00;5.97;;;;;;;0.36;93.69;97965.34;2073037;28;20207;-58
2022/01/22 01:43:52;;;;;;;11.80;5.70;;;;;;;0.31;94.17;97954.22;2071142;28;20202;-58
2022/01/22 01:44:56;;;;;;;9.98;6.10;;;;;;;0.31;94.38;97965.38;2072474;28;20219;-58
2022/01/22 01:45:57;;;;;;;13.63;5.50;;;;;;;0.37;94.12;97970.50;2071946;28;20201;-58
2022/01/22 01:47:01;;;;;;;10.43;5.55;;;;;;;0.41;94.26;97983.34;2072900;28;20340;-58
2022/01/22 01:48:09;;;;;;;10.35;6.25;;;;;;;0.49;93.79;97977.31;2072472;28;20209;-58
2022/01/22 01:49:11;;;;;;;10.55;6.75;;;;;;;0.47;93.78;97979.03;2071171;28;20205;-58
2022/01/22 01:50:13;;;;;;;10.38;5.60;;;;;;;0.43;93.78;97982.47;2073038;28;20194;-58
2022/01/22 01:51:15;;;;;;;16.15;6.57;;;;;;;0.42;93.94;97970.47;2072886;28;20209;-58
2022/01/22 01:52:24;;;;;;;10.10;5.85;;;;;;;0.34;93.80;97967.94;2072903;28;20198;-58
2022/01/22 01:58:19;;;;;;;16.67;6.05;;;;;;;0.45;94.04;97987.63;2072804;28;20224;-58
2022/01/22 01:59:20;;;;;;;9.35;5.15;;;;;;;0.46;93.82;97985.03;2072671;28;20533;-58
2022/01/22 02:00:25;;;;;;;12.93;5.75;;;;;;;0.15;93.48;97946.56;2071553;28;20633;-58
2022/01/22 02:01:26;;;;;;;10.35;6.10;;;;;;;0.42;93.92;97985.94;2072728;28;20213;-58
2022/01/22 02:02:31;;;;;;;14.07;6.25;;;;;;;0.39;94.25;97985.94;2072936;28;20582;-58
2022/01/22 02:03:32;;;;;;;11.60;5.78;;;;;;;0.40;93.87;97982.50;2088551;28;20659;-58
2022/01/22 02:04:34;;;;;;;14.77;6.40;;;;;;;0.42;93.67;97985.94;2087222;28;20907;-58
2022/01/22 02:05:37;;;;;;;11.45;6.85;;;;;;;0.40;94.19;97990.25;2072656;28;20221;-58
2022/01/22 02:06:40;;;;;;;12.13;6.13;;;;;;;0.33;94.20;97980.81;2072625;28;20201;-58
2022/01/22 02:07:44;;;;;;;12.60;6.10;;;;;;;0.28;94.43;97978.28;2072977;28;20638;-58
2022/01/22 02:08:46;;;;;;;9.98;6.30;;;;;;;0.37;94.53;97992.81;2071333;28;20542;-58
2022/01/22 02:09:48;;;;;;;12.48;7.63;;;;;;;0.40;94.39;97992.81;2072437;28;20855;-58
2022/01/22 02:10:57;;;;;;;12.95;7.22;;;;;;;0.41;94.66;97988.50;2072793;28;20697;-58
2022/01/22 02:12:05;;;;;;;13.43;6.47;;;;;;;0.44;94.54;97989.34;2071937;28;20240;-58
2022/01/22 02:23:46;;;;;;;10.70;5.90;;;;;;;0.34;94.43;97978.25;2072458;28;20202;-58
2022/01/22 02:24:49;;;;;;;14.50;7.07;;;;;;;0.28;94.86;97973.13;2072297;28;20562;-58
2022/01/22 02:25:55;;;;;;;18.30;7.13;;;;;;;0.13;94.66;97938.00;2071173;28;20205;-58
2022/01/22 02:26:56;;;;;;;11.80;6.93;;;;;;;0.39;94.88;97975.63;2072702;28;20197;-58
2022/01/22 02:28:00;;;;;;;17.35;7.72;;;;;;;0.38;94.79;97979.09;2072780;28;20198;-58
2022/01/22 02:29:02;;;;;;;12.65;7.05;;;;;;;0.32;94.75;97979.13;2072737;28;20212;-58
2022/01/22 02:30:04;;;;;;;12.70;7.43;;;;;;;0.32;94.92;97973.97;2072257;28;20224;-58
2022/01/22 02:34:34;;;;;;;11.60;6.38;;;;;;;0.38;95.04;97974.78;2072264;28;20198;-58
2022/01/22 02:35:48;;;;;;;11.80;7.25;;;;;;;0.35;94.79;97981.66;2072639;28;20208;-57
2022/01/22 02:37:07;;;;;;;17.10;7.53;;;;;;;0.34;94.58;97974.81;2071933;28;20375;-58
2022/01/22 02:38:15;;;;;;;14.82;6.70;;;;;;;0.43;94.38;97981.63;2071715;28;20208;-58
2022/01/22 02:39:21;;;;;;;12.73;7.07;;;;;;;0.43;94.45;97974.75;2072019;28;20193;-58
2022/01/22 02:40:27;;;;;;;12.15;6.80;;;;;;;0.35;94.74;97979.97;2072513;28;20213;-58
2022/01/22 02:41:29;;;;;;;13.05;6.80;;;;;;;0.37;94.83;97974.78;2072311;28;20202;-58
2022/01/22 02:42:33;;;;;;;11.05;7.65;;;;;;;0.30;95.01;97976.56;2072585;28;20202;-58
2022/01/22 02:43:35;;;;;;;15.93;8.18;;;;;;;0.28;95.28;97983.44;2071796;28;20545;-58
2022/01/22 02:44:46;;;;;;;13.60;7.05;;;;;;;0.32;95.12;97979.13;2072210;28;20225;-58
2022/01/22 02:45:49;;;;;;;12.88;6.65;;;;;;;0.32;95.09;97976.56;2072694;28;20541;-58
2022/01/22 02:46:51;;;;;;;15.40;8.63;;;;;;;0.32;95.22;97973.97;2072168;28;20196;-58
2022/01/22 02:47:53;;;;;;;17.23;7.47;;;;;;;0.34;94.84;97974.81;2072653;28;20585;-58
2022/01/22 02:48:56;;;;;;;12.63;8.15;;;;;;;0.21;95.33;97965.44;2071066;28;20201;-58
2022/01/22 02:49:57;;;;;;;15.75;7.60;;;;;;;0.24;95.16;97971.44;2072127;28;20232;-58
2022/01/22 02:50:59;;;;;;;13.32;6.65;;;;;;;0.29;95.00;97967.09;2072601;28;20209;-59
2022/01/22 02:52:03;;;;;;;12.10;7.00;;;;;;;0.22;95.19;97961.97;2072488;28;20198;-58
2022/01/22 02:53:07;;;;;;;16.48;7.38;;;;;;;0.32;95.10;97973.97;2072531;28;20699;-59
2022/01/22 02:54:09;;;;;;;17.55;8.18;;;;;;;0.18;95.35;97956.88;2072543;28;20319;-59
2022/01/22 02:55:12;;;;;;;12.95;7.38;;;;;;;0.26;95.41;97974.88;2072202;28;20698;-59
2022/01/22 02:56:13;;;;;;;13.35;8.07;;;;;;;0.32;95.48;97976.56;2071992;28;20202;-58
2022/01/22 02:57:15;;;;;;;13.50;7.95;;;;;;;0.27;95.37;97973.13;2072492;28;20198;-58
2022/01/22 02:58:16;;;;;;;15.60;8.57;;;;;;;0.23;95.35;97967.13;2072604;28;20201;-58
2022/01/22 02:59:21;;;;;;;13.93;7.78;;;;;;;0.32;95.18;97973.97;2072271;28;20209;-59
2022/01/22 03:00:23;;;;;;;20.67;9.52;;;;;;;0.32;95.24;97973.97;2072162;28;20677;-58
2022/01/22 03:01:25;;;;;;;15.98;7.65;;;;;;;0.29;95.27;97976.56;2072524;28;20543;-58
2022/01/22 03:02:27;;;;;;;16.40;8.45;;;;;;;0.24;95.42;97962.88;2072544;28;20194;-58
2022/01/22 03:03:29;;;;;;;13.55;8.15;;;;;;;0.31;95.34;97969.66;2072169;28;20443;-58
2022/01/22 03:04:31;;;;;;;22.52;8.70;;;;;;;0.26;95.49;97971.44;2071896;28;20240;-58
2022/01/22 03:05:32;;;;;;;14.27;7.45;;;;;;;0.24;95.78;97968.88;2072141;28;20244;-58
2022/01/22 03:06:34;;;;;;;16.63;7.88;;;;;;;0.27;95.71;97967.97;2072535;28;20642;-58
2022/01/22 03:07:38;;;;;;;14.50;8.52;;;;;;;0.01;95.85;97932.91;2072408;28;20545;-58
2022/01/22 03:08:42;;;;;;;21.48;8.50;;;;;;;0.30;95.68;97968.81;2072278;28;20237;-58
2022/01/22 03:09:46;;;;;;;18.63;8.77;;;;;;;0.29;95.67;97972.25;2072066;28;20232;-58
2022/01/22 03:10:51;;;;;;;13.93;6.65;;;;;;;0.28;95.20;97967.13;2072404;28;20194;-58
2022/01/22 03:15:58;;;;;;;21.20;9.57;;;;;;;0.24;95.71;97968.00;2042914;29;20237;-58
2022/01/22 03:18:19;;;;;;;17.58;10.30;;;;;;;0.14;95.76;97954.31;2041899;29;20209;-59
2022/01/22 03:22:12;;;;;;;17.88;8.95;;;;;;;0.19;95.63;97966.28;2035179;29;20583;-59
2022/01/22 03:27:23;;;;;;;20.13;9.43;;;;;;;0.24;95.70;97978.31;2042386;29;20204;-58
2022/01/22 03:28:29;;;;;;;23.40;9.20;;;;;;;0.19;95.58;97971.44;2041348;29;20200;-59
2022/01/22 03:29:33;;;;;;;17.80;8.77;;;;;;;0.24;95.50;97981.75;2042464;29;20228;-58
2022/01/22 03:30:34;;;;;;;24.30;10.40;;;;;;;0.25;95.46;97974.88;2042184;29;20203;-59
2022/01/22 03:31:37;;;;;;;18.27;9.02;;;;;;;0.26;95.79;97977.44;2041886;29;20206;-59
2022/01/22 03:32:43;;;;;;;11.82;8.02;;;;;;;0.29;95.66;97968.81;2042958;29;20232;-58
2022/01/22 03:33:44;;;;;;;15.52;7.90;;;;;;;0.24;95.46;97971.44;2043149;29;20199;-58
2022/01/22 03:36:28;;;;;;;15.48;8.10;;;;;;;0.33;95.42;97971.41;2019071;29;20662;-58
2022/01/22 03:37:29;;;;;;;22.40;8.32;;;;;;;0.30;95.44;97965.41;2019342;29;20295;-58
2022/01/22 03:38:31;;;;;;;12.95;7.60;;;;;;;0.27;95.55;97970.56;2019149;29;20322;-58
2022/01/22 03:39:32;;;;;;;15.45;9.30;;;;;;;0.27;95.42;97962.81;2018864;29;20256;-58
2022/01/22 03:40:34;;;;;;;15.98;8.20;;;;;;;0.30;95.57;97962.81;2017243;29;20239;-58
2022/01/22 03:41:36;;;;;;;16.27;9.15;;;;;;;0.19;95.60;97950.84;2019349;29;20622;-58
2022/01/22 03:42:37;;;;;;;19.35;10.75;;;;;;;0.26;95.77;97963.72;2017953;29;20214;-58
2022/01/22 03:43:39;;;;;;;16.75;9.43;;;;;;;0.21;95.86;97965.44;2019648;29;20201;-58
2022/01/22 03:44:41;;;;;;;20.73;10.10;;;;;;;0.21;95.98;97966.28;2018751;29;20244;-58
2022/01/22 03:45:42;;;;;;;16.67;9.43;;;;;;;0.23;95.72;97963.72;2019269;29;20221;-58
2022/01/22 03:46:44;;;;;;;22.17;8.75;;;;;;;0.05;95.39;97926.88;2019280;29;20198;-58
2022/01/22 03:47:45;;;;;;;16.23;8.70;;;;;;;0.24;95.44;97955.97;2019407;29;20207;-58
2022/01/22 03:48:47;;;;;;;15.05;9.30;;;;;;;0.21;95.60;97955.13;2019399;29;20546;-58
2022/01/22 03:49:49;;;;;;;23.98;10.13;;;;;;;0.25;95.83;97957.66;2038400;29;20809;-58
2022/01/22 03:50:51;;;;;;;20.95;8.45;;;;;;;0.27;95.89;97961.09;2042943;29;20207;-58
2022/01/22 03:51:52;;;;;;;18.98;9.30;;;;;;;0.23;96.07;97954.25;2042881;29;20208;-58
2022/01/22 03:52:54;;;;;;;17.00;9.07;;;;;;;0.28;95.67;97961.97;2042868;29;20196;-58
2022/01/22 03:53:56;;;;;;;22.98;9.30;;;;;;;0.25;95.87;97956.81;2043231;29;20204;-58
2022/01/22 03:54:58;;;;;;;20.92;9.43;;;;;;;0.27;95.44;97965.41;2041995;29;20315;-58
2022/01/22 03:56:04;;;;;;;13.75;8.30;;;;;;;0.25;95.84;97961.97;2042511;29;20211;-58
2022/01/22 03:57:08;;;;;;;18.15;9.15;;;;;;;0.23;95.57;97958.56;2041813;29;20211;-58
2022/01/22 03:58:09;;;;;;;14.32;8.82;;;;;;;0.30;95.38;97950.78;2042771;29;20214;-58
2022/01/22 03:59:11;;;;;;;17.55;8.90;;;;;;;0.28;95.68;97962.81;2041181;29;20732;-58
2022/01/22 04:00:13;;;;;;;22.35;9.48;;;;;;;0.27;95.70;97957.66;2043102;29;20221;-58
2022/01/22 04:01:43;;;;;;;19.50;9.55;;;;;;;0.22;95.42;97942.25;2043432;29;20212;-58
2022/01/22 04:04:05;;;;;;;26.88;9.68;;;;;;;0.19;95.92;97940.53;2043072;29;20205;-58
2022/01/22 04:05:06;;;;;;;22.75;9.30;;;;;;;0.19;95.42;97934.53;2041886;29;20239;-58
2022/01/22 04:08:26;;;;;;;22.95;9.63;;;;;;;0.24;95.67;97943.09;2042508;29;20196;-59
2022/01/22 04:09:31;;;;;;;19.90;8.95;;;;;;;0.01;95.55;97908.88;2042255;29;20207;-58
2022/01/22 04:10:34;;;;;;;16.23;8.50;;;;;;;0.25;95.56;97947.38;2042632;29;20207;-58
2022/01/22 04:11:39;;;;;;;16.58;8.65;;;;;;;0.26;95.30;97951.66;2065312;28;20202;-58
2022/01/22 04:12:49;;;;;;;23.00;10.55;;;;;;;0.27;95.34;97943.06;2071533;28;20202;-58
2022/01/22 04:13:53;;;;;;;22.83;9.95;;;;;;;0.35;94.94;97943.00;2071181;28;20202;-58
2022/01/22 04:15:01;;;;;;;21.73;8.65;;;;;;;-0.05;95.34;97900.31;2070812;28;20233;-58
2022/01/22 04:16:02;;;;;;;22.55;9.20;;;;;;;0.23;95.06;97943.09;2072096;28;20660;-58
2022/01/22 04:24:56;;;;;;;16.77;9.88;;;;;;;0.13;95.38;97924.25;2071365;28;20759;-58
2022/01/22 04:26:07;;;;;;;20.60;9.45;;;;;;;0.18;95.50;97933.69;2071992;28;20236;-58
2022/01/22 04:27:12;;;;;;;21.15;9.48;;;;;;;0.21;95.85;97930.22;2070562;28;20205;-58
2022/01/22 04:28:13;;;;;;;19.92;7.93;;;;;;;0.19;95.14;97930.22;2072071;28;20637;-58
2022/01/22 04:29:15;;;;;;;15.38;9.38;;;;;;;-0.08;95.44;97892.63;2071107;28;20198;-58
2022/01/22 04:30:16;;;;;;;16.90;9.70;;;;;;;0.17;95.70;97937.09;2072075;28;20198;-58
2022/01/22 04:31:19;;;;;;;16.90;9.25;;;;;;;0.27;95.18;97942.22;2072069;28;20208;-59
2022/01/22 04:32:21;;;;;;;23.08;9.65;;;;;;;0.17;95.21;97934.53;2072030;28;20657;-58
2022/01/22 04:33:22;;;;;;;16.73;8.88;;;;;;;0.24;94.93;97932.78;2072066;28;20644;-58
2022/01/22 04:34:24;;;;;;;15.90;8.77;;;;;;;0.30;94.92;97940.47;2071638;28;20189;-58
2022/01/22 04:35:26;;;;;;;22.77;8.05;;;;;;;0.26;95.20;97954.25;2086117;28;20200;-58
2022/01/22 04:36:27;;;;;;;16.48;9.07;;;;;;;0.31;94.42;97943.91;2087395;28;20625;-58
2022/01/22 04:37:29;;;;;;;22.42;8.98;;;;;;;0.30;94.64;97937.06;2072077;28;20200;-58
2022/01/22 04:38:30;;;;;;;14.25;8.35;;;;;;;0.32;94.42;97940.47;2071991;28;20193;-58
2022/01/22 04:39:32;;;;;;;14.77;7.93;;;;;;;0.12;94.61;97918.25;2071556;28;20226;-58
2022/01/22 04:40:34;;;;;;;16.80;9.02;;;;;;;0.17;94.78;97929.38;2071760;28;20551;-59
2022/01/22 04:41:36;;;;;;;24.38;9.30;;;;;;;0.29;94.35;97943.06;2071588;28;20214;-58
2022/01/22 04:42:40;;;;;;;21.15;8.45;;;;;;;0.35;94.31;97937.84;2072186;28;20525;-58
2022/01/22 04:43:43;;;;;;;18.45;8.35;;;;;;;0.34;94.20;97947.31;2072412;28;20193;-58
2022/01/22 04:46:50;;;;;;;15.07;8.35;;;;;;;0.30;93.75;97945.63;2073458;28;20700;-58
2022/01/22 04:48:13;;;;;;;17.65;8.15;;;;;;;0.32;93.89;97946.47;2063857;28;20208;-58
2022/01/22 04:48:49;;;;;;;13.68;7.28;;;;;;;0.31;93.59;97938.75;2064157;28;20194;-58
2022/01/22 04:55:27;;;;;;;30.38;9.60;;;;;;;0.31;94.03;97937.00;2072710;28;20205;-58
2022/01/22 04:56:29;;;;;;;23.88;8.93;;;;;;;0.28;94.54;97941.34;2073328;28;20194;-58
2022/01/22 04:57:33;;;;;;;18.90;8.63;;;;;;;0.36;94.35;97934.44;2073456;28;20198;-58
2022/01/22 04:58:35;;;;;;;15.00;8.63;;;;;;;0.33;93.93;97934.44;2073359;28;20327;-58
2022/01/22 04:59:36;;;;;;;17.50;8.43;;;;;;;0.35;94.06;97938.72;2072325;28;20225;-58
2022/01/22 05:00:40;;;;;;;16.08;8.20;;;;;;;0.38;93.80;97937.84;2072918;28;20205;-58
2022/01/22 05:01:41;;;;;;;14.48;8.35;;;;;;;0.40;93.43;97936.13;2072305;28;20300;-58
2022/01/22 05:02:43;;;;;;;14.10;7.95;;;;;;;0.36;93.44;97937.00;2073392;28;20208;-58
2022/01/22 05:03:45;;;;;;;22.58;8.85;;;;;;;0.35;93.83;97928.41;2073341;28;20244;-58
2022/01/22 05:04:46;;;;;;;27.98;9.68;;;;;;;0.34;93.66;97933.59;2072763;28;20229;-58
2022/01/22 05:05:48;;;;;;;14.18;7.50;;;;;;;0.31;93.65;97925.84;2073300;28;20723;-58
2022/01/22 05:06:49;;;;;;;16.52;8.93;;;;;;;0.30;93.59;97929.31;2073428;28;20193;-58
2022/01/22 05:07:52;;;;;;;18.20;8.55;;;;;;;0.32;93.70;97932.75;2073236;28;20252;-58
2022/01/22 05:08:53;;;;;;;20.63;8.43;;;;;;;0.34;93.53;97936.16;2073369;28;20201;-59
2022/01/22 05:09:55;;;;;;;20.70;7.43;;;;;;;0.35;93.62;97935.28;2072832;28;20233;-58
2022/01/22 05:10:56;;;;;;;15.30;7.60;;;;;;;0.37;93.82;97936.13;2073397;28;20204;-59
2022/01/22 05:11:58;;;;;;;17.35;8.15;;;;;;;0.32;93.64;97928.44;2073202;28;20197;-58
2022/01/22 05:13:00;;;;;;;22.55;9.10;;;;;;;0.33;93.62;97935.31;2073334;28;20956;-58
2022/01/22 05:14:01;;;;;;;19.02;9.30;;;;;;;0.24;93.89;97935.38;2073075;28;20387;-58
2022/01/22 05:15:04;;;;;;;17.65;8.35;;;;;;;0.22;93.95;97931.06;2071334;28;20249;-58
2022/01/22 05:16:05;;;;;;;20.13;8.77;;;;;;;0.24;93.91;97937.94;2073619;28;20653;-58
2022/01/22 05:17:08;;;;;;;14.32;8.25;;;;;;;0.30;94.20;97934.47;2071316;28;20197;-59
2022/01/22 05:18:10;;;;;;;18.88;9.00;;;;;;;0.32;94.07;97945.63;2073298;28;20201;-59
2022/01/22 05:19:18;;;;;;;14.95;8.27;;;;;;;0.29;94.23;97937.91;2072914;28;20209;-58
2022/01/22 05:21:22;;;;;;;14.55;8.52;;;;;;;0.26;93.85;97938.78;2073247;28;20357;-59
2022/01/22 05:23:28;;;;;;;22.48;10.07;;;;;;;0.28;94.18;97939.63;2073292;28;20198;-59
2022/01/22 05:24:32;;;;;;;19.15;9.15;;;;;;;0.33;93.80;97942.16;2071199;28;20202;-58
2022/01/22 05:25:40;;;;;;;15.38;8.50;;;;;;;0.33;93.55;97945.63;2072502;28;20194;-59
2022/01/22 05:27:12;;;;;;;15.45;8.90;;;;;;;0.31;93.76;97946.47;2072545;28;20258;-59
2022/01/22 05:28:38;;;;;;;19.83;7.70;;;;;;;0.07;93.78;97916.56;2071953;28;20201;-59
2022/01/22 05:36:57;;;;;;;20.85;8.15;;;;;;;0.26;94.07;97953.41;2073263;28;20197;-58
2022/01/22 05:37:33;;;;;;;15.55;8.00;;;;;;;0.31;93.84;97951.63;2072974;28;20220;-59
2022/01/22 05:38:35;;;;;;;17.90;8.93;;;;;;;0.36;93.60;97962.78;2073061;28;20194;-59
2022/01/22 05:39:37;;;;;;;18.08;9.45;;;;;;;0.36;93.70;97971.34;2072805;28;20229;-59
2022/01/22 05:40:39;;;;;;;14.95;8.77;;;;;;;0.30;93.76;97950.78;2073058;28;20197;-58
2022/01/22 05:41:40;;;;;;;14.82;8.50;;;;;;;0.33;93.75;97966.25;2073000;28;20625;-59
2022/01/22 05:42:42;;;;;;;19.17;9.00;;;;;;;0.38;93.76;97967.03;2073070;28;20297;-59
2022/01/22 05:43:43;;;;;;;26.50;9.38;;;;;;;0.14;93.42;97937.13;2073058;28;20205;-59
2022/01/22 05:44:45;;;;;;;26.77;9.85;;;;;;;0.38;93.36;97969.63;2072690;28;20226;-59
2022/01/22 05:45:47;;;;;;;17.13;8.43;;;;;;;0.32;93.64;97976.56;2073000;28;20198;-58
2022/01/22 05:46:50;;;;;;;16.90;8.35;;;;;;;0.34;93.83;97985.97;2072817;28;20193;-58
2022/01/22 05:47:52;;;;;;;17.88;8.60;;;;;;;0.37;93.73;97985.97;2073128;28;20205;-58
2022/01/22 05:48:54;;;;;;;20.83;8.93;;;;;;;0.38;93.51;97985.09;2071329;28;20194;-58
2022/01/22 05:49:56;;;;;;;25.95;9.43;;;;;;;0.37;93.57;97983.38;2072532;28;20225;-59
2022/01/22 05:51:01;;;;;;;16.27;8.95;;;;;;;0.36;93.30;97983.41;2072600;28;20216;-59
2022/01/22 05:52:05;;;;;;;14.32;8.98;;;;;;;0.35;93.51;97982.56;2072867;28;20194;-59
2022/01/22 05:53:16;;;;;;;16.95;9.20;;;;;;;0.21;93.65;97960.28;2072821;28;20305;-59
2022/01/22 05:54:49;;;;;;;20.75;10.77;;;;;;;0.32;93.76;97976.56;2070163;28;20193;-59
2022/01/22 05:59:49;;;;;;;23.90;9.98;;;;;;;0.30;93.83;97970.56;2070106;28;20225;-59
2022/01/22 06:00:52;;;;;;;22.98;9.30;;;;;;;0.31;94.18;97961.94;2072900;28;20206;-59
2022/01/22 06:01:53;;;;;;;14.75;7.90;;;;;;;0.30;93.88;97965.41;2071821;28;20214;-58
2022/01/22 06:02:55;;;;;;;18.08;9.13;;;;;;;0.30;93.98;97967.97;2071218;28;20198;-58
2022/01/22 06:03:57;;;;;;;19.30;9.35;;;;;;;0.32;93.96;97968.81;2072577;28;20194;-58
2022/01/22 06:04:58;;;;;;;19.17;9.50;;;;;;;0.32;93.85;97979.13;2071933;28;20226;-58
2022/01/22 06:06:00;;;;;;;20.60;8.93;;;;;;;0.30;93.89;97970.56;2071688;28;20673;-58
2022/01/22 06:07:03;;;;;;;19.95;8.85;;;;;;;0.33;93.80;97967.94;2072933;28;20557;-58
2022/01/22 06:08:05;;;;;;;15.95;8.75;;;;;;;0.24;93.81;97973.16;2072970;28;20208;-58
2022/01/22 06:09:09;;;;;;;21.95;9.20;;;;;;;0.36;93.55;97980.81;2072117;28;20233;-59
2022/01/22 06:10:17;;;;;;;15.70;8.93;;;;;;;0.33;94.08;97979.13;2072476;28;20255;-58
2022/01/22 06:11:24;;;;;;;16.80;9.15;;;;;;;0.35;93.76;97973.94;2072263;28;20233;-58
2022/01/22 06:13:44;;;;;;;17.20;9.48;;;;;;;0.38;93.77;97976.50;2070535;28;20197;-58
2022/01/22 06:14:45;;;;;;;24.42;8.73;;;;;;;0.34;93.73;97982.56;2071577;28;20226;-59
2022/01/22 06:15:47;;;;;;;15.77;9.90;;;;;;;0.33;93.82;97983.41;2072199;28;20616;-58
2022/01/22 06:16:49;;;;;;;18.67;9.10;;;;;;;0.38;93.30;97984.25;2072654;28;20202;-58
2022/01/22 06:17:50;;;;;;;22.73;11.68;;;;;;;0.32;93.77;97990.28;2072523;28;20202;-58
2022/01/22 06:18:52;;;;;;;14.27;9.25;;;;;;;0.30;94.10;97979.13;2072843;28;20246;-58
2022/01/22 06:19:53;;;;;;;24.02;10.75;;;;;;;0.33;93.70;97985.97;2071936;28;20586;-58
2022/01/22 06:20:54;;;;;;;21.13;9.15;;;;;;;0.38;93.47;97986.81;2072720;28;20216;-58
2022/01/22 06:21:56;;;;;;;18.30;10.35;;;;;;;0.31;93.48;97985.97;2072733;28;20202;-58
2022/01/22 06:22:59;;;;;;;19.33;8.63;;;;;;;0.32;93.61;97995.44;2072582;28;20194;-58
2022/01/22 06:24:00;;;;;;;17.35;10.05;;;;;;;0.38;93.66;97984.25;2072635;28;20198;-59